Time;durP1;ratioP1;P1;durP2;ratioP2;P2;SDS_P1;SDS_P2;PMS_P1;PMS_P2;Temp;Humidity;BMP_temperature;BMP_pressure;BME280_temperature;BME280_humidity;BME280_pressure;Samples;Min_cycle;Max_cycle;Signal;HPM_P1;HPM_P2
2023/03/08 00:00:59;;;;;;;20.48;7.60;;;3.30;99.90;;;;;;4941820;29;20035;-75
2023/03/08 00:03:25;;;;;;;17.50;6.25;;;3.20;99.90;;;;;;4943336;29;20097;-74
2023/03/08 00:05:53;;;;;;;20.23;6.93;;;3.20;99.90;;;;;;4936586;29;20027;-75
2023/03/08 00:08:19;;;;;;;20.42;7.30;;;3.20;99.90;;;;;;4947429;29;20039;-75
2023/03/08 00:10:45;;;;;;;19.50;7.03;;;3.20;99.90;;;;;;4922036;29;20095;-75
2023/03/08 00:13:11;;;;;;;19.15;6.88;;;3.10;99.90;;;;;;4931304;29;20437;-74
2023/03/08 00:15:38;;;;;;;15.00;6.38;;;3.10;99.90;;;;;;4932570;29;20042;-75
2023/03/08 00:18:06;;;;;;;21.08;7.43;;;3.00;99.90;;;;;;4931233;29;20032;-75
2023/03/08 00:20:32;;;;;;;18.05;6.68;;;3.00;99.90;;;;;;4928510;29;20086;-75
2023/03/08 00:22:58;;;;;;;20.23;7.57;;;3.10;99.90;;;;;;4917416;29;20031;-75
2023/03/08 00:25:23;;;;;;;19.55;6.60;;;3.00;99.90;;;;;;4926752;29;20032;-74
2023/03/08 00:27:49;;;;;;;19.30;7.03;;;3.10;99.90;;;;;;4946172;29;20059;-75
2023/03/08 00:30:15;;;;;;;21.35;7.13;;;3.00;99.90;;;;;;4946479;29;20043;-74
2023/03/08 00:32:40;;;;;;;21.60;8.18;;;2.90;99.90;;;;;;4932773;29;20032;-75
2023/03/08 00:35:07;;;;;;;21.42;7.45;;;3.00;99.90;;;;;;4931746;29;20028;-75
2023/03/08 00:37:32;;;;;;;18.27;6.55;;;3.10;99.90;;;;;;4937486;29;20362;-75
2023/03/08 00:39:58;;;;;;;19.58;6.70;;;3.10;99.90;;;;;;4925525;29;20035;-74
2023/03/08 00:42:24;;;;;;;21.60;7.10;;;3.20;99.90;;;;;;4935135;29;20035;-74
2023/03/08 00:44:50;;;;;;;19.42;7.07;;;3.30;99.90;;;;;;4920618;29;20036;-74
2023/03/08 00:47:16;;;;;;;20.38;7.28;;;3.30;99.90;;;;;;4928493;29;20055;-74
2023/03/08 00:49:42;;;;;;;17.92;7.18;;;3.30;99.90;;;;;;4932261;29;20050;-74
2023/03/08 00:52:09;;;;;;;23.25;7.30;;;3.30;99.90;;;;;;4911304;29;20430;-75
2023/03/08 00:54:34;;;;;;;21.42;7.10;;;3.30;99.90;;;;;;4927213;29;20035;-74
2023/03/08 00:57:00;;;;;;;19.63;7.60;;;3.30;99.90;;;;;;4910956;29;20038;-74
2023/03/08 00:59:26;;;;;;;20.52;7.45;;;3.30;99.90;;;;;;4931432;29;20388;-74
2023/03/08 01:01:51;;;;;;;20.10;7.70;;;3.30;99.90;;;;;;4929517;29;20063;-75
2023/03/08 01:04:17;;;;;;;22.60;7.65;;;3.30;99.90;;;;;;4943421;29;20045;-75
2023/03/08 01:06:43;;;;;;;21.75;7.00;;;3.40;99.90;;;;;;4929867;29;20055;-75
2023/03/08 01:09:10;;;;;;;20.90;7.50;;;3.40;99.90;;;;;;4930649;29;20770;-74
2023/03/08 01:11:36;;;;;;;21.50;7.10;;;3.40;99.90;;;;;;4912068;29;20489;-74
2023/03/08 01:14:09;;;;;;;20.15;7.97;;;3.50;99.90;;;;;;4924728;29;20035;-75
2023/03/08 01:16:36;;;;;;;21.63;8.07;;;3.50;99.90;;;;;;4925391;29;20070;-74
2023/03/08 01:19:02;;;;;;;20.92;7.85;;;3.40;99.90;;;;;;4930695;29;20107;-74
2023/03/08 01:21:30;;;;;;;20.20;8.40;;;3.40;99.90;;;;;;4937148;29;20055;-75
2023/03/08 01:23:56;;;;;;;22.30;7.95;;;3.40;99.90;;;;;;4931083;29;20031;-74
2023/03/08 01:26:25;;;;;;;23.10;7.32;;;3.40;99.90;;;;;;4929743;29;20040;-74
2023/03/08 01:28:51;;;;;;;21.30;8.32;;;3.30;99.90;;;;;;4935262;29;20110;-75
2023/03/08 01:31:28;;;;;;;22.02;8.15;;;3.30;99.90;;;;;;4933627;29;20721;-74
2023/03/08 01:33:54;;;;;;;20.70;7.60;;;3.20;99.90;;;;;;4933411;29;20496;-75
2023/03/08 01:36:23;;;;;;;22.27;7.45;;;3.10;99.90;;;;;;4933632;29;20036;-74
2023/03/08 01:38:49;;;;;;;21.95;8.25;;;3.10;99.90;;;;;;4932718;29;20036;-75
2023/03/08 01:41:18;;;;;;;24.20;9.00;;;3.10;99.90;;;;;;4924055;29;20036;-75
2023/03/08 01:43:44;;;;;;;22.10;7.97;;;2.90;99.90;;;;;;4935127;29;20177;-75
2023/03/08 01:46:24;;;;;;;23.45;8.13;;;2.90;99.90;;;;;;4917071;29;20039;-75
2023/03/08 01:49:10;;;;;;;;;;;2.90;99.90;;;;;;4933559;29;20485;-75
2023/03/08 01:51:48;;;;;;;23.85;8.40;;;3.00;99.90;;;;;;4928737;29;19922;-75
2023/03/08 01:54:19;;;;;;;20.92;7.35;;;3.00;99.90;;;;;;4919010;29;20102;-75
2023/03/08 01:56:48;;;;;;;21.35;8.68;;;2.90;99.90;;;;;;4932156;29;21781;-75
2023/03/08 01:59:14;;;;;;;21.45;7.80;;;3.00;99.90;;;;;;4917208;29;20036;-75
2023/03/08 02:01:40;;;;;;;21.23;7.72;;;3.00;99.90;;;;;;4936983;29;20053;-75
2023/03/08 02:04:07;;;;;;;20.45;8.13;;;3.10;99.90;;;;;;4943531;29;20641;-75
2023/03/08 02:06:34;;;;;;;23.80;8.18;;;3.10;99.90;;;;;;4941134;29;20094;-75
2023/03/08 02:09:03;;;;;;;25.90;8.25;;;3.10;99.90;;;;;;4928744;29;20623;-75
2023/03/08 02:11:31;;;;;;;23.07;8.23;;;3.10;99.90;;;;;;4930718;29;20091;-74
2023/03/08 02:13:56;;;;;;;23.63;7.55;;;2.90;99.90;;;;;;4929974;29;20114;-75
2023/03/08 02:16:22;;;;;;;20.63;8.45;;;2.80;99.90;;;;;;4927852;29;20119;-75
2023/03/08 02:18:50;;;;;;;21.58;7.57;;;2.80;99.90;;;;;;4944702;29;20042;-75
2023/03/08 02:21:16;;;;;;;22.67;8.75;;;2.70;99.90;;;;;;4939962;29;20062;-75
2023/03/08 02:23:41;;;;;;;26.40;8.80;;;2.70;99.90;;;;;;4934106;29;20552;-75
2023/03/08 02:26:07;;;;;;;22.42;8.10;;;2.70;99.90;;;;;;4925936;29;20032;-75
2023/03/08 02:28:33;;;;;;;22.77;7.97;;;2.60;99.90;;;;;;4932481;29;20079;-75
2023/03/08 02:30:59;;;;;;;23.85;8.80;;;2.70;99.90;;;;;;4937815;29;20049;-75
2023/03/08 02:33:25;;;;;;;22.48;8.38;;;2.70;99.90;;;;;;4927671;29;20032;-75
2023/03/08 02:35:51;;;;;;;22.33;8.40;;;2.70;99.90;;;;;;4933660;29;20366;-75
2023/03/08 02:38:19;;;;;;;21.35;8.35;;;2.70;99.90;;;;;;4935051;29;20051;-75
2023/03/08 02:40:45;;;;;;;21.80;8.20;;;2.70;99.90;;;;;;4925461;29;20150;-75
2023/03/08 02:43:11;;;;;;;23.60;8.65;;;2.70;99.90;;;;;;4931627;29;20031;-74
2023/03/08 02:45:37;;;;;;;24.05;8.90;;;2.70;99.90;;;;;;4919674;29;20533;-75
2023/03/08 02:48:04;;;;;;;28.52;9.05;;;2.60;99.90;;;;;;4932192;29;20062;-74
2023/03/08 02:50:30;;;;;;;26.75;9.07;;;2.60;99.90;;;;;;4932333;29;20434;-74
2023/03/08 02:52:56;;;;;;;22.65;8.95;;;2.60;99.90;;;;;;4950129;29;20031;-75
2023/03/08 02:55:22;;;;;;;22.13;8.75;;;2.50;99.90;;;;;;4940430;29;20032;-75
2023/03/08 02:57:48;;;;;;;25.35;8.55;;;2.40;99.90;;;;;;4931745;29;20563;-75
2023/03/08 03:00:13;;;;;;;25.45;8.68;;;2.50;99.90;;;;;;4922217;29;20039;-75
2023/03/08 03:02:39;;;;;;;24.85;8.30;;;2.40;99.90;;;;;;4916867;29;20067;-74
2023/03/08 03:05:09;;;;;;;21.52;8.32;;;2.40;99.90;;;;;;4930151;29;20039;-74
2023/03/08 03:07:40;;;;;;;22.55;7.95;;;2.40;99.90;;;;;;4914068;29;20059;-76
2023/03/08 03:10:07;;;;;;;24.95;9.15;;;2.40;99.90;;;;;;4913842;29;20640;-75
2023/03/08 03:12:32;;;;;;;24.35;8.57;;;2.30;99.90;;;;;;4930950;29;20535;-75
2023/03/08 03:15:04;;;;;;;26.20;8.60;;;2.40;99.90;;;;;;4931212;29;20043;-75
2023/03/08 03:17:30;;;;;;;25.23;8.98;;;2.50;99.90;;;;;;4932801;29;20070;-75
2023/03/08 03:19:56;;;;;;;23.95;7.90;;;2.50;99.90;;;;;;4930556;29;20058;-76
2023/03/08 03:22:21;;;;;;;24.60;8.75;;;2.60;99.90;;;;;;4934905;29;20039;-75
2023/03/08 03:24:51;;;;;;;23.08;8.63;;;2.60;99.90;;;;;;4931153;29;20035;-75
2023/03/08 03:27:21;;;;;;;23.60;8.45;;;2.60;99.90;;;;;;4928748;29;20420;-76
2023/03/08 03:29:46;;;;;;;23.15;8.75;;;2.50;99.90;;;;;;4919755;29;20067;-76
2023/03/08 03:32:12;;;;;;;22.88;8.68;;;2.50;99.90;;;;;;4919124;29;20051;-75
2023/03/08 03:34:38;;;;;;;25.50;8.70;;;2.50;99.90;;;;;;4916902;29;20548;-75
2023/03/08 03:37:03;;;;;;;24.25;8.80;;;2.60;99.90;;;;;;4930628;29;20808;-75
2023/03/08 03:39:32;;;;;;;24.73;9.35;;;2.70;99.90;;;;;;4927458;29;20036;-75
2023/03/08 03:41:59;;;;;;;25.88;8.77;;;2.70;99.90;;;;;;4931301;29;20388;-74
2023/03/08 03:44:25;;;;;;;22.58;7.90;;;2.70;99.90;;;;;;4926753;29;20523;-75
2023/03/08 03:46:50;;;;;;;26.23;8.50;;;2.70;99.90;;;;;;4920973;29;20028;-74
2023/03/08 03:49:16;;;;;;;27.25;9.48;;;2.70;99.90;;;;;;4934273;29;20028;-75
2023/03/08 03:51:41;;;;;;;26.88;9.05;;;2.70;99.90;;;;;;4927898;29;20094;-75
2023/03/08 03:54:07;;;;;;;23.98;8.60;;;2.70;99.90;;;;;;4933235;29;20527;-75
2023/03/08 03:56:32;;;;;;;22.10;8.60;;;2.60;99.90;;;;;;4927901;29;20038;-75
2023/03/08 03:58:58;;;;;;;28.35;9.00;;;2.60;99.90;;;;;;4934654;29;20042;-75
2023/03/08 04:01:26;;;;;;;24.13;8.55;;;2.50;99.90;;;;;;4928693;29;20044;-75
2023/03/08 04:03:53;;;;;;;22.52;8.23;;;2.50;99.90;;;;;;4928037;29;20484;-75
2023/03/08 04:06:28;;;;;;;26.45;8.68;;;2.60;99.90;;;;;;4914257;29;20091;-75
2023/03/08 04:09:06;;;;;;;22.02;7.90;;;2.70;99.90;;;;;;4924816;29;20059;-75
2023/03/08 04:11:35;;;;;;;21.75;8.55;;;2.60;99.90;;;;;;4934634;29;20066;-73
2023/03/08 04:14:02;;;;;;;21.33;8.63;;;2.70;99.90;;;;;;4946503;29;20035;-73
2023/03/08 04:16:30;;;;;;;23.48;8.98;;;2.70;99.90;;;;;;4925537;29;20115;-73
2023/03/08 04:19:04;;;;;;;24.48;7.88;;;2.70;99.90;;;;;;4930703;29;20039;-74
2023/03/08 04:21:30;;;;;;;22.10;8.73;;;2.60;99.90;;;;;;4931740;29;20480;-73
2023/03/08 04:23:56;;;;;;;23.75;8.90;;;2.60;99.90;;;;;;4931030;29;20079;-74
2023/03/08 04:26:23;;;;;;;26.73;9.00;;;2.40;99.90;;;;;;4923051;29;20047;-73
2023/03/08 04:28:48;;;;;;;23.10;8.63;;;2.40;99.90;;;;;;4913347;29;20043;-73
2023/03/08 04:31:19;;;;;;;21.85;8.13;;;2.30;99.90;;;;;;4915273;29;20027;-74
2023/03/08 04:33:45;;;;;;;22.58;8.45;;;2.20;99.90;;;;;;4923990;29;20032;-74
2023/03/08 04:36:11;;;;;;;24.40;9.00;;;2.20;99.90;;;;;;4911772;29;20095;-74
2023/03/08 04:38:37;;;;;;;25.38;9.80;;;2.10;99.90;;;;;;4912605;29;20145;-73
2023/03/08 04:41:06;;;;;;;22.92;9.48;;;2.20;99.90;;;;;;4928810;29;20043;-74
2023/03/08 04:43:33;;;;;;;22.00;8.27;;;2.20;99.90;;;;;;4925456;29;20118;-74
2023/03/08 04:46:02;;;;;;;22.33;8.50;;;2.20;99.90;;;;;;4949774;29;20031;-74
2023/03/08 04:48:28;;;;;;;22.10;8.13;;;2.20;99.90;;;;;;4931067;29;20039;-74
2023/03/08 04:50:56;;;;;;;27.63;9.25;;;2.20;99.90;;;;;;4930734;29;20472;-74
2023/03/08 04:53:23;;;;;;;22.35;8.68;;;2.20;99.90;;;;;;4943589;28;20031;-74
2023/03/08 04:55:49;;;;;;;22.35;8.32;;;2.10;99.90;;;;;;4949784;29;20062;-74
2023/03/08 04:58:15;;;;;;;23.10;8.40;;;2.00;99.90;;;;;;4928269;29;20123;-72
2023/03/08 05:00:41;;;;;;;24.08;8.90;;;1.90;99.90;;;;;;4916408;29;20321;-72
2023/03/08 05:03:06;;;;;;;22.30;8.43;;;1.80;99.90;;;;;;4929385;29;20038;-72
2023/03/08 05:05:32;;;;;;;23.00;8.93;;;1.70;99.90;;;;;;4936837;29;20052;-72
2023/03/08 05:08:04;;;;;;;23.15;8.48;;;1.70;99.90;;;;;;4928658;29;20449;-72
2023/03/08 05:10:33;;;;;;;22.50;8.48;;;1.80;99.90;;;;;;4923986;29;20071;-73
2023/03/08 05:12:59;;;;;;;25.27;8.88;;;1.80;99.90;;;;;;4929099;29;20063;-73
2023/03/08 05:15:25;;;;;;;22.70;8.52;;;1.80;99.90;;;;;;4930846;29;20094;-74
2023/03/08 05:17:50;;;;;;;23.45;8.65;;;1.90;99.90;;;;;;4929141;29;20055;-73
2023/03/08 05:20:17;;;;;;;21.95;8.95;;;1.90;99.90;;;;;;4930397;29;20667;-74
2023/03/08 05:22:43;;;;;;;24.52;8.38;;;2.00;99.90;;;;;;4929761;29;20042;-74
2023/03/08 05:25:09;;;;;;;22.52;8.82;;;2.00;99.90;;;;;;4929834;29;20118;-72
2023/03/08 05:27:35;;;;;;;23.42;8.75;;;2.10;99.90;;;;;;4916353;29;20532;-75
2023/03/08 05:30:01;;;;;;;24.73;10.00;;;2.00;99.90;;;;;;4920695;29;20059;-74
2023/03/08 05:32:27;;;;;;;29.60;10.40;;;2.00;99.90;;;;;;4931372;29;20436;-72
2023/03/08 05:34:53;;;;;;;28.85;10.80;;;2.00;99.90;;;;;;4921664;29;20032;-73
2023/03/08 05:37:19;;;;;;;29.25;11.07;;;1.90;99.90;;;;;;4910830;29;20036;-74
2023/03/08 05:39:46;;;;;;;26.50;10.10;;;1.80;99.90;;;;;;4917348;29;20119;-72
2023/03/08 05:42:12;;;;;;;29.83;10.60;;;1.70;99.90;;;;;;4910690;29;20505;-74
2023/03/08 05:44:37;;;;;;;24.50;9.95;;;1.80;99.90;;;;;;4911860;29;20040;-75
2023/03/08 05:47:03;;;;;;;26.88;10.95;;;1.80;99.90;;;;;;4918026;29;20040;-72
2023/03/08 05:49:29;;;;;;;26.83;11.05;;;1.80;99.90;;;;;;4914541;29;20139;-72
2023/03/08 05:51:55;;;;;;;29.55;10.90;;;1.80;99.90;;;;;;4930531;29;20054;-66
2023/03/08 05:54:21;;;;;;;28.75;10.70;;;1.90;99.90;;;;;;4920486;29;20092;-72
2023/03/08 05:56:47;;;;;;;28.08;11.35;;;1.90;99.90;;;;;;4924728;29;20113;-72
2023/03/08 05:59:12;;;;;;;30.25;11.52;;;1.90;99.90;;;;;;4947668;29;20134;-70
2023/03/08 06:01:38;;;;;;;28.02;10.90;;;2.00;99.90;;;;;;4935742;29;20127;-71
2023/03/08 06:04:04;;;;;;;33.40;11.30;;;2.00;99.90;;;;;;4927797;28;20079;-70
2023/03/08 06:06:29;;;;;;;30.80;10.80;;;1.90;99.90;;;;;;4933936;29;20107;-71
2023/03/08 06:08:55;;;;;;;27.52;10.73;;;1.80;99.90;;;;;;4932405;29;20055;-73
2023/03/08 06:11:21;;;;;;;31.33;10.65;;;1.70;99.90;;;;;;4914911;29;20380;-72
2023/03/08 06:13:47;;;;;;;28.70;10.68;;;1.60;99.90;;;;;;4922061;29;20501;-71
2023/03/08 06:16:13;;;;;;;25.50;9.73;;;1.60;99.90;;;;;;4921678;29;20388;-70
2023/03/08 06:18:41;;;;;;;25.63;10.20;;;1.70;99.90;;;;;;4933768;29;20027;-71
2023/03/08 06:21:11;;;;;;;25.05;9.88;;;1.70;99.90;;;;;;4929429;29;20083;-75
2023/03/08 06:23:37;;;;;;;21.23;9.15;;;1.80;99.90;;;;;;4932120;29;20330;-75
2023/03/08 06:26:04;;;;;;;24.17;9.05;;;1.90;99.90;;;;;;4931124;29;20079;-72
2023/03/08 06:28:30;;;;;;;24.10;9.73;;;2.00;99.90;;;;;;4914995;29;20387;-70
2023/03/08 06:30:56;;;;;;;22.30;9.52;;;2.10;99.90;;;;;;4908375;29;20373;-70
2023/03/08 06:33:25;;;;;;;28.55;9.88;;;2.20;99.90;;;;;;4931499;29;20068;-70
2023/03/08 06:36:15;;;;;;;31.10;11.00;;;2.20;99.90;;;;;;4929362;29;20489;-74
2023/03/08 06:38:41;;;;;;;27.00;9.95;;;2.20;99.90;;;;;;4920134;29;20040;-71
2023/03/08 06:41:08;;;;;;;31.17;10.63;;;2.30;99.90;;;;;;4931949;29;20429;-73
2023/03/08 06:43:34;;;;;;;31.88;12.90;;;2.30;99.90;;;;;;4933003;29;20404;-77
2023/03/08 06:46:11;;;;;;;36.05;13.38;;;2.30;99.90;;;;;;4932866;29;20039;-71
2023/03/08 06:48:37;;;;;;;32.42;12.82;;;2.40;99.90;;;;;;4935604;29;20036;-74
2023/03/08 06:51:04;;;;;;;33.30;11.48;;;2.30;99.90;;;;;;4932463;29;20054;-74
2023/03/08 06:53:30;;;;;;;28.90;11.55;;;2.40;99.90;;;;;;4919546;29;20101;-75
2023/03/08 06:55:56;;;;;;;33.50;11.82;;;2.40;99.90;;;;;;4932166;29;20035;-71
2023/03/08 06:58:22;;;;;;;28.25;10.77;;;2.50;99.90;;;;;;4913491;29;20044;-72
2023/03/08 07:00:47;;;;;;;30.35;11.75;;;2.50;99.90;;;;;;4932963;29;20425;-74
2023/03/08 07:03:13;;;;;;;26.02;10.70;;;2.60;99.90;;;;;;4933802;29;20381;-76
2023/03/08 07:05:39;;;;;;;29.75;10.98;;;2.70;99.90;;;;;;4933190;29;20668;-73
2023/03/08 07:08:06;;;;;;;28.65;11.38;;;2.80;99.90;;;;;;4931197;29;20059;-71
2023/03/08 07:10:32;;;;;;;34.08;12.20;;;2.80;99.90;;;;;;4917759;29;20044;-75
2023/03/08 07:12:57;;;;;;;33.58;12.30;;;2.80;99.90;;;;;;4926107;29;20428;-73
2023/03/08 07:15:23;;;;;;;32.15;11.98;;;2.90;99.90;;;;;;4931856;29;20044;-73
2023/03/08 07:17:51;;;;;;;34.50;12.20;;;2.90;99.90;;;;;;4930274;29;20102;-73
2023/03/08 07:20:18;;;;;;;33.40;12.68;;;3.00;99.90;;;;;;4931905;29;20032;-74
2023/03/08 07:22:45;;;;;;;28.98;11.70;;;3.00;99.90;;;;;;4931091;29;20039;-73
2023/03/08 07:25:15;;;;;;;36.03;13.23;;;3.00;99.90;;;;;;4931497;29;20032;-75
2023/03/08 07:27:41;;;;;;;34.90;13.05;;;3.00;99.90;;;;;;4938145;29;20765;-74
2023/03/08 07:30:08;;;;;;;34.67;12.85;;;3.00;99.90;;;;;;4931910;29;20048;-73
2023/03/08 07:32:35;;;;;;;42.90;13.93;;;3.00;99.90;;;;;;4921812;29;20470;-74
2023/03/08 07:35:01;;;;;;;32.97;13.07;;;3.10;99.90;;;;;;4931728;29;20066;-69
2023/03/08 07:37:26;;;;;;;38.38;13.65;;;3.10;99.90;;;;;;4929371;29;20488;-75
2023/03/08 07:39:52;;;;;;;41.25;13.77;;;3.10;99.90;;;;;;4922872;29;20492;-75
2023/03/08 07:42:18;;;;;;;37.78;13.15;;;3.10;99.90;;;;;;4929195;29;20110;-73
2023/03/08 07:44:44;;;;;;;37.05;13.88;;;3.10;99.90;;;;;;4931941;29;20032;-75
2023/03/08 07:47:09;;;;;;;38.97;13.77;;;3.10;99.90;;;;;;4929994;29;20366;-72
2023/03/08 07:49:35;;;;;;;36.17;13.10;;;3.10;99.90;;;;;;4931825;29;20023;-72
2023/03/08 07:52:01;;;;;;;37.13;14.07;;;3.10;99.90;;;;;;4931188;29;20078;-73
2023/03/08 07:54:27;;;;;;;40.83;14.88;;;3.10;99.90;;;;;;4930997;29;20035;-75
2023/03/08 07:56:54;;;;;;;41.55;15.93;;;3.00;99.90;;;;;;4937380;29;20035;-74
2023/03/08 07:59:21;;;;;;;42.22;15.88;;;3.00;99.90;;;;;;4930742;29;20035;-76
2023/03/08 08:01:47;;;;;;;52.35;21.20;;;3.00;99.90;;;;;;4940820;29;20062;-76
2023/03/08 08:04:12;;;;;;;52.10;20.35;;;3.00;99.90;;;;;;4917763;29;20063;-72
2023/03/08 08:06:39;;;;;;;105.60;38.95;;;3.00;99.90;;;;;;4930258;29;20040;-74
2023/03/08 08:09:06;;;;;;;45.28;17.52;;;3.00;99.90;;;;;;4928341;29;20032;-69
2023/03/08 08:11:33;;;;;;;50.85;17.67;;;2.90;99.90;;;;;;4912619;29;20036;-75
2023/03/08 08:13:59;;;;;;;51.63;17.08;;;2.90;99.90;;;;;;4930453;29;20089;-74
2023/03/08 08:16:25;;;;;;;44.45;18.17;;;2.90;99.90;;;;;;4930867;29;20035;-71
2023/03/08 08:18:51;;;;;;;44.45;16.80;;;2.90;99.90;;;;;;4930607;29;20111;-76
2023/03/08 08:21:17;;;;;;;46.85;16.38;;;2.90;99.90;;;;;;4918629;29;20044;-72
2023/03/08 08:23:43;;;;;;;51.05;17.23;;;2.90;99.90;;;;;;4912557;29;20064;-70
2023/03/08 08:26:12;;;;;;;44.55;16.35;;;2.90;99.90;;;;;;4911786;29;20119;-75
2023/03/08 08:28:40;;;;;;;47.00;17.23;;;2.90;99.90;;;;;;4901017;29;20051;-74
2023/03/08 08:31:09;;;;;;;46.85;17.55;;;2.90;99.90;;;;;;4910214;29;20143;-70
2023/03/08 08:33:35;;;;;;;48.85;16.88;;;2.90;99.90;;;;;;4912709;29;20067;-72
2023/03/08 08:36:04;;;;;;;42.15;16.85;;;2.90;99.90;;;;;;4910176;29;20091;-73
2023/03/08 08:38:29;;;;;;;48.13;19.17;;;2.90;99.90;;;;;;4911948;29;20060;-70
2023/03/08 08:40:59;;;;;;;43.15;17.55;;;3.00;99.90;;;;;;4888373;29;20040;-76
2023/03/08 08:43:25;;;;;;;46.77;18.47;;;3.00;99.90;;;;;;4900874;29;20055;-77
2023/03/08 08:45:54;;;;;;;45.92;17.00;;;3.10;99.90;;;;;;4916362;29;20633;-71
2023/03/08 08:48:20;;;;;;;51.08;19.25;;;3.20;99.90;;;;;;4913321;29;20031;-75
2023/03/08 08:50:45;;;;;;;52.95;19.17;;;3.30;99.90;;;;;;4911788;29;20036;-76
2023/03/08 08:53:11;;;;;;;46.67;19.08;;;3.30;99.90;;;;;;4894083;29;20084;-75
2023/03/08 08:55:37;;;;;;;47.97;17.75;;;3.40;99.90;;;;;;4905643;29;20033;-76
2023/03/08 08:58:04;;;;;;;44.85;18.23;;;3.40;99.90;;;;;;4901140;29;20048;-73
2023/03/08 09:00:32;;;;;;;50.70;18.98;;;3.30;99.90;;;;;;4910827;29;20457;-79
2023/03/08 09:02:59;;;;;;;47.75;18.00;;;3.30;99.90;;;;;;4911639;29;20091;-74
2023/03/08 09:05:24;;;;;;;47.78;17.40;;;3.20;99.90;;;;;;4910848;29;20381;-72
2023/03/08 09:07:53;;;;;;;46.65;17.85;;;3.20;99.90;;;;;;4912208;29;20056;-72
2023/03/08 09:10:19;;;;;;;51.15;20.15;;;3.20;99.90;;;;;;4898726;29;20049;-69
2023/03/08 09:12:45;;;;;;;52.88;19.17;;;3.20;99.90;;;;;;4901987;29;20024;-71
2023/03/08 09:15:11;;;;;;;49.85;19.10;;;3.20;99.90;;;;;;4907341;29;20089;-77
2023/03/08 09:17:38;;;;;;;46.47;17.95;;;3.30;99.90;;;;;;4894890;29;20329;-78
2023/03/08 09:20:05;;;;;;;48.17;17.95;;;3.30;99.90;;;;;;4911914;29;20081;-74
2023/03/08 09:22:31;;;;;;;46.55;18.27;;;3.30;99.90;;;;;;4910884;29;20036;-75
2023/03/08 09:24:57;;;;;;;47.35;17.38;;;3.40;99.90;;;;;;4908297;29;20040;-76
2023/03/08 09:27:22;;;;;;;52.78;20.58;;;3.50;99.90;;;;;;4919245;29;20540;-71
2023/03/08 09:29:48;;;;;;;56.00;20.55;;;3.60;99.90;;;;;;4930809;29;20369;-75
2023/03/08 09:32:14;;;;;;;48.75;18.58;;;3.70;99.90;;;;;;4934102;29;20046;-77
2023/03/08 09:34:39;;;;;;;44.72;18.13;;;3.60;99.90;;;;;;4929891;29;20087;-78
2023/03/08 09:37:07;;;;;;;47.63;17.58;;;3.70;99.90;;;;;;4928419;29;20032;-75
2023/03/08 09:39:33;;;;;;;45.38;17.25;;;3.80;99.90;;;;;;4923584;29;20032;-71
2023/03/08 09:42:04;;;;;;;44.42;17.00;;;3.90;99.90;;;;;;4915154;29;20033;-76
2023/03/08 09:44:50;;;;;;;34.55;15.52;;;4.00;99.90;;;;;;4914868;29;20032;-78
2023/03/08 09:47:22;;;;;;;40.72;16.45;;;4.10;99.90;;;;;;4928991;29;20114;-78
2023/03/08 09:49:51;;;;;;;40.70;14.88;;;4.20;99.90;;;;;;4936800;29;20097;-74
2023/03/08 09:52:26;;;;;;;36.83;14.20;;;4.30;99.90;;;;;;4925646;29;20031;-71
2023/03/08 09:54:52;;;;;;;34.75;12.75;;;4.40;99.90;;;;;;4934239;29;20028;-74
2023/03/08 09:57:24;;;;;;;33.45;13.85;;;4.40;99.90;;;;;;4933732;29;20047;-76
2023/03/08 09:59:53;;;;;;;27.58;11.02;;;4.50;99.90;;;;;;4934376;29;20115;-76
2023/03/08 10:02:31;;;;;;;34.10;12.05;;;4.60;99.90;;;;;;4943796;29;20090;-77
2023/03/08 10:05:06;;;;;;;28.20;10.77;;;4.80;99.90;;;;;;4935198;29;20892;-80
2023/03/08 10:07:58;;;;;;;29.40;10.48;;;5.00;99.90;;;;;;4930622;29;20028;-75
2023/03/08 10:10:40;;;;;;;28.52;10.63;;;5.10;99.90;;;;;;4931365;29;20460;-77
2023/03/08 10:13:24;;;;;;;30.88;11.20;;;5.10;99.90;;;;;;4934002;29;20034;-75
2023/03/08 10:15:56;;;;;;;27.30;10.00;;;5.10;99.90;;;;;;4933698;29;20063;-74
2023/03/08 10:18:55;;;;;;;28.95;10.57;;;5.20;99.90;;;;;;4933197;29;20016;-76
2023/03/08 10:21:24;;;;;;;28.27;9.70;;;5.20;99.90;;;;;;4922726;29;20039;-76
2023/03/08 10:23:58;;;;;;;29.90;10.18;;;5.30;99.90;;;;;;4922503;29;20435;-73
2023/03/08 10:26:25;;;;;;;24.58;9.98;;;5.30;99.90;;;;;;4931870;29;20102;-73
2023/03/08 10:28:51;;;;;;;24.23;9.63;;;5.40;99.90;;;;;;4949753;29;20031;-73
2023/03/08 10:31:28;;;;;;;22.77;10.00;;;5.50;99.90;;;;;;4946998;29;20516;-76
2023/03/08 10:34:09;;;;;;;23.45;9.38;;;5.50;99.90;;;;;;4932442;29;20043;-79
2023/03/08 10:36:45;;;;;;;;;;;5.60;99.90;;;;;;4932078;29;20040;-77
2023/03/08 10:39:10;;;;;;;17.95;7.05;;;5.70;99.90;;;;;;4918365;29;19911;-70
2023/03/08 10:41:51;;;;;;;21.55;7.97;;;5.90;99.90;;;;;;4932696;29;20053;-77
2023/03/08 10:44:56;;;;;;;24.13;8.57;;;5.90;99.90;;;;;;4914593;29;20036;-76
2023/03/08 10:47:30;;;;;;;21.08;8.57;;;6.00;99.90;;;;;;4916658;29;20040;-77
2023/03/08 10:50:16;;;;;;;21.45;9.02;;;6.00;99.90;;;;;;4914002;29;20477;-74
2023/03/08 10:52:45;;;;;;;17.23;7.70;;;6.00;99.90;;;;;;4927440;29;20110;-77
2023/03/08 10:55:41;;;;;;;21.27;8.35;;;6.00;99.90;;;;;;4931375;29;20040;-75
2023/03/08 10:58:29;;;;;;;22.40;8.20;;;6.10;99.90;;;;;;4930367;29;20397;-76
2023/03/08 11:00:57;;;;;;;18.20;7.88;;;6.10;99.90;;;;;;4932650;29;20574;-74
2023/03/08 11:03:24;;;;;;;17.52;7.63;;;6.10;99.90;;;;;;4917125;29;20652;-73
2023/03/08 11:05:56;;;;;;;18.58;7.60;;;6.20;99.90;;;;;;4924542;29;20031;-74
2023/03/08 11:08:27;;;;;;;17.60;7.55;;;6.30;99.90;;;;;;4932053;29;20473;-74
2023/03/08 11:11:05;;;;;;;22.30;7.10;;;6.50;99.90;;;;;;4932892;29;20054;-73
2023/03/08 11:13:36;;;;;;;16.90;6.82;;;6.50;99.90;;;;;;4944094;29;20031;-74
2023/03/08 11:16:26;;;;;;;21.45;7.57;;;6.50;99.90;;;;;;4945115;29;20023;-73
2023/03/08 11:18:57;;;;;;;16.63;6.95;;;6.60;99.90;;;;;;4917381;29;20110;-78
2023/03/08 11:21:32;;;;;;;15.10;6.63;;;6.60;99.90;;;;;;4916210;29;20043;-76
2023/03/08 11:24:22;;;;;;;17.55;6.68;;;6.60;99.90;;;;;;4931952;29;20047;-76
2023/03/08 11:26:54;;;;;;;13.77;5.28;;;6.70;99.90;;;;;;4931812;29;20520;-77
2023/03/08 11:29:46;;;;;;;18.58;7.03;;;6.80;99.90;;;;;;4931845;29;20035;-78
2023/03/08 11:32:12;;;;;;;17.48;7.20;;;6.80;99.90;;;;;;4925670;29;20054;-78
2023/03/08 11:34:56;;;;;;;16.75;6.28;;;6.90;99.90;;;;;;4927227;29;20032;-77
2023/03/08 11:37:37;;;;;;;14.70;6.28;;;7.10;99.90;;;;;;4930200;29;20027;-76
2023/03/08 11:40:42;;;;;;;16.75;6.18;;;7.20;99.90;;;;;;4925180;29;20043;-73
2023/03/08 11:43:29;;;;;;;12.57;4.43;;;7.40;99.90;;;;;;4932212;29;20031;-73
2023/03/08 11:46:11;;;;;;;10.02;4.30;;;7.70;99.90;;;;;;4930555;29;20079;-76
2023/03/08 11:49:09;;;;;;;11.32;5.22;;;7.80;99.90;;;;;;4910705;29;20028;-75
2023/03/08 11:51:41;;;;;;;11.32;4.65;;;8.00;99.90;;;;;;4926990;29;20040;-80
2023/03/08 11:55:11;;;;;;;9.63;3.95;;;8.20;99.90;;;;;;4912526;29;20082;-76
2023/03/08 11:57:44;;;;;;;10.67;3.70;;;8.30;99.90;;;;;;4831833;29;20562;-75
2023/03/08 12:00:28;;;;;;;8.77;3.63;;;8.40;99.90;;;;;;4833213;29;20076;-75
2023/03/08 12:02:58;;;;;;;7.13;2.97;;;8.40;99.90;;;;;;4890357;29;20150;-76
2023/03/08 12:05:29;;;;;;;6.60;2.50;;;8.60;99.90;;;;;;4934026;29;20039;-73
2023/03/08 12:08:03;;;;;;;7.68;3.38;;;8.70;99.90;;;;;;4931617;29;20036;-73
2023/03/08 12:10:49;;;;;;;7.20;2.95;;;8.90;99.90;;;;;;4923163;29;20039;-75
2023/03/08 12:13:35;;;;;;;6.97;2.78;;;9.00;99.90;;;;;;4918979;29;20028;-75
2023/03/08 12:16:03;;;;;;;6.50;2.10;;;9.00;99.90;;;;;;4895846;29;20028;-75
2023/03/08 12:19:05;;;;;;;4.93;2.13;;;9.10;99.90;;;;;;4930506;29;20038;-75
2023/03/08 12:21:40;;;;;;;4.88;2.22;;;9.20;99.90;;;;;;4893446;29;20378;-75
2023/03/08 12:24:28;;;;;;;6.65;2.70;;;9.30;99.90;;;;;;4931503;29;20032;-74
2023/03/08 12:27:13;;;;;;;3.97;2.10;;;9.20;99.90;;;;;;4948892;29;20070;-73
2023/03/08 12:30:02;;;;;;;4.93;2.25;;;9.30;99.90;;;;;;4929386;29;20050;-74
2023/03/08 12:32:29;;;;;;;6.03;1.90;;;9.50;99.90;;;;;;4935748;29;20359;-75
2023/03/08 12:35:22;;;;;;;4.53;1.70;;;9.50;99.90;;;;;;4931547;29;20031;-75
2023/03/08 12:37:55;;;;;;;4.65;1.80;;;9.50;99.90;;;;;;4930752;29;20035;-76
2023/03/08 12:40:30;;;;;;;4.88;1.55;;;9.70;99.90;;;;;;4916453;29;20466;-72
2023/03/08 12:43:08;;;;;;;3.53;1.70;;;9.70;99.90;;;;;;4911000;29;20036;-78
2023/03/08 12:45:34;;;;;;;6.38;1.40;;;9.70;99.90;;;;;;4931902;29;20119;-74
2023/03/08 12:48:06;;;;;;;3.15;1.30;;;9.70;99.90;;;;;;4931740;29;20202;-73
2023/03/08 12:50:38;;;;;;;4.00;1.05;;;9.80;99.90;;;;;;4927642;29;20095;-73
2023/03/08 12:53:24;;;;;;;1.77;0.82;;;9.90;99.90;;;;;;4931641;29;20039;-75
2023/03/08 12:56:22;;;;;;;2.03;1.02;;;10.00;99.90;;;;;;4929197;29;20090;-76
2023/03/08 12:58:54;;;;;;;3.03;1.05;;;10.10;99.90;;;;;;4906642;29;20074;-77